sensor_id;sensor_type;location;lat;lon;timestamp;temperature;humidity
33269;DHT22;19640;50.944;5.260;2023-08-01T00:01:32;17.70;99.90
33269;DHT22;19640;50.944;5.260;2023-08-01T00:03:57;17.80;99.90
33269;DHT22;19640;50.944;5.260;2023-08-01T00:06:23;18.00;99.90
33269;DHT22;19640;50.944;5.260;2023-08-01T00:08:51;18.00;99.90
33269;DHT22;19640;50.944;5.260;2023-08-01T00:11:16;17.90;99.90
33269;DHT22;19640;50.944;5.260;2023-08-01T00:13:42;18.00;99.90
33269;DHT22;19640;50.944;5.260;2023-08-01T00:16:11;18.00;99.90
33269;DHT22;19640;50.944;5.260;2023-08-01T00:18:36;18.00;99.90
33269;DHT22;19640;50.944;5.260;2023-08-01T00:21:03;18.00;99.90
33269;DHT22;19640;50.944;5.260;2023-08-01T00:23:31;17.90;99.90
33269;DHT22;19640;50.944;5.260;2023-08-01T00:25:56;18.00;99.90
33269;DHT22;19640;50.944;5.260;2023-08-01T00:28:22;18.10;99.90
33269;DHT22;19640;50.944;5.260;2023-08-01T00:30:48;17.90;99.90
33269;DHT22;19640;50.944;5.260;2023-08-01T00:33:15;17.90;99.90
33269;DHT22;19640;50.944;5.260;2023-08-01T00:35:41;17.80;99.90
33269;DHT22;19640;50.944;5.260;2023-08-01T00:38:07;17.80;99.90
33269;DHT22;19640;50.944;5.260;2023-08-01T00:40:33;17.80;99.90
33269;DHT22;19640;50.944;5.260;2023-08-01T00:42:59;17.80;99.90
33269;DHT22;19640;50.944;5.260;2023-08-01T00:45:26;17.90;99.90
33269;DHT22;19640;50.944;5.260;2023-08-01T00:47:54;17.90;99.90
33269;DHT22;19640;50.944;5.260;2023-08-01T00:50:20;17.90;99.90
33269;DHT22;19640;50.944;5.260;2023-08-01T00:52:46;17.80;99.90
33269;DHT22;19640;50.944;5.260;2023-08-01T00:55:13;17.80;99.90
33269;DHT22;19640;50.944;5.260;2023-08-01T00:57:40;17.70;99.90
33269;DHT22;19640;50.944;5.260;2023-08-01T01:00:07;17.80;99.90
33269;DHT22;19640;50.944;5.260;2023-08-01T01:02:33;17.70;99.90
33269;DHT22;19640;50.944;5.260;2023-08-01T01:05:00;17.70;99.90
33269;DHT22;19640;50.944;5.260;2023-08-01T01:07:26;17.70;99.90
33269;DHT22;19640;50.944;5.260;2023-08-01T01:09:52;17.70;99.90
33269;DHT22;19640;50.944;5.260;2023-08-01T01:12:18;17.40;99.90
33269;DHT22;19640;50.944;5.260;2023-08-01T01:14:43;17.50;99.90
33269;DHT22;19640;50.944;5.260;2023-08-01T01:17:15;17.40;99.90
33269;DHT22;19640;50.944;5.260;2023-08-01T01:19:41;17.30;99.90
33269;DHT22;19640;50.944;5.260;2023-08-01T01:22:07;17.30;99.90
33269;DHT22;19640;50.944;5.260;2023-08-01T01:24:35;17.40;99.90
33269;DHT22;19640;50.944;5.260;2023-08-01T01:27:02;17.50;99.90
33269;DHT22;19640;50.944;5.260;2023-08-01T01:29:30;17.50;99.90
33269;DHT22;19640;50.944;5.260;2023-08-01T01:31:56;17.30;99.90
33269;DHT22;19640;50.944;5.260;2023-08-01T01:34:23;17.40;99.90
33269;DHT22;19640;50.944;5.260;2023-08-01T01:36:49;17.40;99.90
33269;DHT22;19640;50.944;5.260;2023-08-01T01:39:14;17.40;99.90
33269;DHT22;19640;50.944;5.260;2023-08-01T01:41:40;17.50;99.90
33269;DHT22;19640;50.944;5.260;2023-08-01T01:44:06;17.30;99.90
33269;DHT22;19640;50.944;5.260;2023-08-01T01:46:31;17.40;99.90
33269;DHT22;19640;50.944;5.260;2023-08-01T01:48:58;17.30;99.90
33269;DHT22;19640;50.944;5.260;2023-08-01T01:51:26;17.40;99.90
33269;DHT22;19640;50.944;5.260;2023-08-01T01:53:52;17.40;99.90
33269;DHT22;19640;50.944;5.260;2023-08-01T01:56:18;17.10;99.90
33269;DHT22;19640;50.944;5.260;2023-08-01T01:58:43;17.20;99.90
33269;DHT22;19640;50.944;5.260;2023-08-01T02:01:09;17.20;99.90
33269;DHT22;19640;50.944;5.260;2023-08-01T02:03:35;17.30;99.90
33269;DHT22;19640;50.944;5.260;2023-08-01T02:06:02;17.30;99.90
33269;DHT22;19640;50.944;5.260;2023-08-01T02:08:29;17.30;99.90
33269;DHT22;19640;50.944;5.260;2023-08-01T02:10:55;17.30;99.90
33269;DHT22;19640;50.944;5.260;2023-08-01T02:13:28;17.10;99.90
33269;DHT22;19640;50.944;5.260;2023-08-01T02:15:54;17.00;99.90
33269;DHT22;19640;50.944;5.260;2023-08-01T02:18:20;17.00;99.90
33269;DHT22;19640;50.944;5.260;2023-08-01T02:20:46;17.00;99.90
33269;DHT22;19640;50.944;5.260;2023-08-01T02:23:12;17.00;99.90
33269;DHT22;19640;50.944;5.260;2023-08-01T02:25:42;17.10;99.90
33269;DHT22;19640;50.944;5.260;2023-08-01T02:28:08;17.10;99.90
33269;DHT22;19640;50.944;5.260;2023-08-01T02:30:34;16.90;99.90
33269;DHT22;19640;50.944;5.260;2023-08-01T02:33:00;16.90;99.90
33269;DHT22;19640;50.944;5.260;2023-08-01T02:35:26;16.80;99.90
33269;DHT22;19640;50.944;5.260;2023-08-01T02:37:54;16.80;99.90
33269;DHT22;19640;50.944;5.260;2023-08-01T02:40:19;16.70;99.90
33269;DHT22;19640;50.944;5.260;2023-08-01T02:42:45;16.70;99.90
33269;DHT22;19640;50.944;5.260;2023-08-01T02:45:12;16.70;99.90
33269;DHT22;19640;50.944;5.260;2023-08-01T02:47:38;16.50;99.90
33269;DHT22;19640;50.944;5.260;2023-08-01T02:50:04;16.50;99.90
33269;DHT22;19640;50.944;5.260;2023-08-01T02:52:30;16.40;99.90
33269;DHT22;19640;50.944;5.260;2023-08-01T02:54:56;16.40;99.90
33269;DHT22;19640;50.944;5.260;2023-08-01T02:57:21;16.60;99.90
33269;DHT22;19640;50.944;5.260;2023-08-01T02:59:47;16.60;99.90
33269;DHT22;19640;50.944;5.260;2023-08-01T03:02:12;16.50;99.90
33269;DHT22;19640;50.944;5.260;2023-08-01T03:04:38;16.50;99.90
33269;DHT22;19640;50.944;5.260;2023-08-01T03:07:05;16.50;99.90
33269;DHT22;19640;50.944;5.260;2023-08-01T03:09:32;16.50;99.90
33269;DHT22;19640;50.944;5.260;2023-08-01T03:11:58;16.50;99.90
33269;DHT22;19640;50.944;5.260;2023-08-01T03:14:24;16.50;99.90
33269;DHT22;19640;50.944;5.260;2023-08-01T03:16:50;16.40;99.90
33269;DHT22;19640;50.944;5.260;2023-08-01T03:19:16;16.50;99.90
33269;DHT22;19640;50.944;5.260;2023-08-01T03:21:41;16.70;99.90
33269;DHT22;19640;50.944;5.260;2023-08-01T03:24:07;16.60;99.90
33269;DHT22;19640;50.944;5.260;2023-08-01T03:26:35;16.80;99.90
33269;DHT22;19640;50.944;5.260;2023-08-01T03:29:01;16.60;99.90
33269;DHT22;19640;50.944;5.260;2023-08-01T03:31:27;16.60;99.90
33269;DHT22;19640;50.944;5.260;2023-08-01T03:33:53;16.50;99.90
33269;DHT22;19640;50.944;5.260;2023-08-01T03:36:19;16.50;99.90
33269;DHT22;19640;50.944;5.260;2023-08-01T03:38:44;16.60;99.90
33269;DHT22;19640;50.944;5.260;2023-08-01T03:41:10;16.40;99.90
33269;DHT22;19640;50.944;5.260;2023-08-01T03:43:36;16.50;99.90
33269;DHT22;19640;50.944;5.260;2023-08-01T03:46:02;16.50;99.90
33269;DHT22;19640;50.944;5.260;2023-08-01T03:48:28;16.50;99.90
33269;DHT22;19640;50.944;5.260;2023-08-01T03:50:53;16.50;99.90
33269;DHT22;19640;50.944;5.260;2023-08-01T03:53:19;16.30;99.90
33269;DHT22;19640;50.944;5.260;2023-08-01T03:55:46;16.30;99.90
33269;DHT22;19640;50.944;5.260;2023-08-01T03:58:12;16.10;99.90
33269;DHT22;19640;50.944;5.260;2023-08-01T04:00:37;16.30;99.90
33269;DHT22;19640;50.944;5.260;2023-08-01T04:03:03;16.20;99.90
33269;DHT22;19640;50.944;5.260;2023-08-01T04:05:29;16.20;99.90
33269;DHT22;19640;50.944;5.260;2023-08-01T04:07:54;16.30;99.90
33269;DHT22;19640;50.944;5.260;2023-08-01T04:10:23;16.20;99.90
33269;DHT22;19640;50.944;5.260;2023-08-01T04:12:49;16.10;99.90
33269;DHT22;19640;50.944;5.260;2023-08-01T04:15:15;16.10;99.90
33269;DHT22;19640;50.944;5.260;2023-08-01T04:17:41;16.10;99.90
33269;DHT22;19640;50.944;5.260;2023-08-01T04:20:07;16.20;99.90
33269;DHT22;19640;50.944;5.260;2023-08-01T04:22:32;16.20;99.90
33269;DHT22;19640;50.944;5.260;2023-08-01T04:24:58;16.20;99.90
33269;DHT22;19640;50.944;5.260;2023-08-01T04:27:24;16.10;99.90
33269;DHT22;19640;50.944;5.260;2023-08-01T04:29:49;16.10;99.90
33269;DHT22;19640;50.944;5.260;2023-08-01T04:32:17;16.10;99.90
33269;DHT22;19640;50.944;5.260;2023-08-01T04:34:43;16.10;99.90
33269;DHT22;19640;50.944;5.260;2023-08-01T04:37:08;16.10;99.90
33269;DHT22;19640;50.944;5.260;2023-08-01T04:39:36;16.10;99.90
33269;DHT22;19640;50.944;5.260;2023-08-01T04:42:01;16.20;99.90
33269;DHT22;19640;50.944;5.260;2023-08-01T04:44:28;16.30;99.90
33269;DHT22;19640;50.944;5.260;2023-08-01T04:46:55;16.40;99.90
33269;DHT22;19640;50.944;5.260;2023-08-01T04:49:20;16.30;99.90
33269;DHT22;19640;50.944;5.260;2023-08-01T04:51:48;16.20;99.90
33269;DHT22;19640;50.944;5.260;2023-08-01T04:54:14;16.20;99.90
33269;DHT22;19640;50.944;5.260;2023-08-01T04:56:39;16.10;99.90
33269;DHT22;19640;50.944;5.260;2023-08-01T04:59:05;16.20;99.90
33269;DHT22;19640;50.944;5.260;2023-08-01T05:01:31;16.30;99.90
33269;DHT22;19640;50.944;5.260;2023-08-01T05:03:56;16.40;99.90
33269;DHT22;19640;50.944;5.260;2023-08-01T05:06:23;16.30;99.90
33269;DHT22;19640;50.944;5.260;2023-08-01T05:08:49;16.30;99.90
33269;DHT22;19640;50.944;5.260;2023-08-01T05:11:14;16.30;99.90
33269;DHT22;19640;50.944;5.260;2023-08-01T05:13:40;16.20;99.90
33269;DHT22;19640;50.944;5.260;2023-08-01T05:16:06;16.30;99.90
33269;DHT22;19640;50.944;5.260;2023-08-01T05:18:31;16.30;99.90
33269;DHT22;19640;50.944;5.260;2023-08-01T05:20:57;16.30;99.90
33269;DHT22;19640;50.944;5.260;2023-08-01T05:23:23;16.30;99.90
33269;DHT22;19640;50.944;5.260;2023-08-01T05:25:48;16.30;99.90
33269;DHT22;19640;50.944;5.260;2023-08-01T05:28:14;16.50;99.90
33269;DHT22;19640;50.944;5.260;2023-08-01T05:30:40;16.50;99.90
33269;DHT22;19640;50.944;5.260;2023-08-01T05:33:06;16.70;99.90
33269;DHT22;19640;50.944;5.260;2023-08-01T05:35:32;16.70;99.90
33269;DHT22;19640;50.944;5.260;2023-08-01T05:37:57;16.60;99.90
33269;DHT22;19640;50.944;5.260;2023-08-01T05:40:23;16.50;99.90
33269;DHT22;19640;50.944;5.260;2023-08-01T05:42:51;16.50;99.90
33269;DHT22;19640;50.944;5.260;2023-08-01T05:45:17;16.70;99.90
33269;DHT22;19640;50.944;5.260;2023-08-01T05:47:42;16.80;99.90
33269;DHT22;19640;50.944;5.260;2023-08-01T05:50:09;16.80;99.90
33269;DHT22;19640;50.944;5.260;2023-08-01T05:52:34;16.90;99.90
33269;DHT22;19640;50.944;5.260;2023-08-01T05:55:01;16.70;99.90
33269;DHT22;19640;50.944;5.260;2023-08-01T05:57:33;16.60;99.90
33269;DHT22;19640;50.944;5.260;2023-08-01T05:59:59;16.60;99.90
33269;DHT22;19640;50.944;5.260;2023-08-01T06:02:26;16.70;99.90
33269;DHT22;19640;50.944;5.260;2023-08-01T06:04:52;16.70;99.90
33269;DHT22;19640;50.944;5.260;2023-08-01T06:07:20;16.70;99.90
33269;DHT22;19640;50.944;5.260;2023-08-01T06:09:50;16.90;99.90
33269;DHT22;19640;50.944;5.260;2023-08-01T06:12:18;16.90;99.90
33269;DHT22;19640;50.944;5.260;2023-08-01T06:14:43;17.00;99.90
33269;DHT22;19640;50.944;5.260;2023-08-01T06:17:09;16.90;99.90
33269;DHT22;19640;50.944;5.260;2023-08-01T06:19:35;16.90;99.90
33269;DHT22;19640;50.944;5.260;2023-08-01T06:22:00;16.80;99.90
33269;DHT22;19640;50.944;5.260;2023-08-01T06:24:26;16.80;99.90
33269;DHT22;19640;50.944;5.260;2023-08-01T06:26:51;17.00;99.90
33269;DHT22;19640;50.944;5.260;2023-08-01T06:29:17;17.20;99.90
33269;DHT22;19640;50.944;5.260;2023-08-01T06:31:43;17.10;99.90
33269;DHT22;19640;50.944;5.260;2023-08-01T06:34:09;16.80;99.90
33269;DHT22;19640;50.944;5.260;2023-08-01T06:36:34;17.00;99.90
33269;DHT22;19640;50.944;5.260;2023-08-01T06:39:01;17.10;99.90
33269;DHT22;19640;50.944;5.260;2023-08-01T06:41:26;17.20;99.90
33269;DHT22;19640;50.944;5.260;2023-08-01T06:43:52;17.20;99.90
33269;DHT22;19640;50.944;5.260;2023-08-01T06:46:18;17.10;99.90
33269;DHT22;19640;50.944;5.260;2023-08-01T06:48:43;17.10;99.90
33269;DHT22;19640;50.944;5.260;2023-08-01T06:51:12;17.20;99.90
33269;DHT22;19640;50.944;5.260;2023-08-01T06:53:38;17.10;99.90
33269;DHT22;19640;50.944;5.260;2023-08-01T06:56:04;16.90;99.90
33269;DHT22;19640;50.944;5.260;2023-08-01T06:58:30;17.00;99.90
33269;DHT22;19640;50.944;5.260;2023-08-01T07:00:56;16.90;99.90
33269;DHT22;19640;50.944;5.260;2023-08-01T07:03:24;17.10;99.90
33269;DHT22;19640;50.944;5.260;2023-08-01T07:05:51;17.20;99.90
33269;DHT22;19640;50.944;5.260;2023-08-01T07:08:16;17.30;99.90
33269;DHT22;19640;50.944;5.260;2023-08-01T07:10:42;17.40;99.90
33269;DHT22;19640;50.944;5.260;2023-08-01T07:13:08;17.40;99.90
33269;DHT22;19640;50.944;5.260;2023-08-01T07:15:34;17.60;99.90
33269;DHT22;19640;50.944;5.260;2023-08-01T07:18:00;17.70;99.90
33269;DHT22;19640;50.944;5.260;2023-08-01T07:20:25;17.90;99.90
33269;DHT22;19640;50.944;5.260;2023-08-01T07:22:51;17.80;99.90
33269;DHT22;19640;50.944;5.260;2023-08-01T07:25:17;17.60;99.90
33269;DHT22;19640;50.944;5.260;2023-08-01T07:27:45;17.70;99.90
33269;DHT22;19640;50.944;5.260;2023-08-01T07:30:11;18.40;99.90
33269;DHT22;19640;50.944;5.260;2023-08-01T07:32:36;19.00;99.90
33269;DHT22;19640;50.944;5.260;2023-08-01T07:35:06;20.00;99.90
33269;DHT22;19640;50.944;5.260;2023-08-01T07:37:33;20.20;99.90
33269;DHT22;19640;50.944;5.260;2023-08-01T07:39:59;20.60;99.90
33269;DHT22;19640;50.944;5.260;2023-08-01T07:42:25;20.50;99.90
33269;DHT22;19640;50.944;5.260;2023-08-01T07:44:50;21.40;99.90
33269;DHT22;19640;50.944;5.260;2023-08-01T07:47:16;22.00;99.90
33269;DHT22;19640;50.944;5.260;2023-08-01T07:49:42;21.30;99.90
33269;DHT22;19640;50.944;5.260;2023-08-01T07:52:07;20.70;99.90
33269;DHT22;19640;50.944;5.260;2023-08-01T07:54:33;20.40;99.90
33269;DHT22;19640;50.944;5.260;2023-08-01T07:56:59;20.20;99.90
33269;DHT22;19640;50.944;5.260;2023-08-01T07:59:24;20.90;99.90
33269;DHT22;19640;50.944;5.260;2023-08-01T08:01:50;21.10;99.90
33269;DHT22;19640;50.944;5.260;2023-08-01T08:04:16;20.90;99.90
33269;DHT22;19640;50.944;5.260;2023-08-01T08:06:42;21.30;99.90
33269;DHT22;19640;50.944;5.260;2023-08-01T08:09:08;21.90;99.90
33269;DHT22;19640;50.944;5.260;2023-08-01T08:11:33;21.40;99.90
33269;DHT22;19640;50.944;5.260;2023-08-01T08:13:59;20.90;99.90
33269;DHT22;19640;50.944;5.260;2023-08-01T08:16:25;20.70;99.90
33269;DHT22;19640;50.944;5.260;2023-08-01T08:18:51;20.20;99.90
33269;DHT22;19640;50.944;5.260;2023-08-01T08:21:17;19.80;99.90
33269;DHT22;19640;50.944;5.260;2023-08-01T08:23:42;19.40;99.90
33269;DHT22;19640;50.944;5.260;2023-08-01T08:26:09;19.00;99.90
33269;DHT22;19640;50.944;5.260;2023-08-01T08:28:36;19.10;99.90
33269;DHT22;19640;50.944;5.260;2023-08-01T08:31:02;19.40;99.90
33269;DHT22;19640;50.944;5.260;2023-08-01T08:33:29;19.50;99.90
33269;DHT22;19640;50.944;5.260;2023-08-01T08:35:55;19.70;99.90
33269;DHT22;19640;50.944;5.260;2023-08-01T08:38:21;19.70;99.90
33269;DHT22;19640;50.944;5.260;2023-08-01T08:41:09;19.60;99.90
33269;DHT22;19640;50.944;5.260;2023-08-01T08:43:36;19.60;99.90
33269;DHT22;19640;50.944;5.260;2023-08-01T08:46:03;20.00;99.90
33269;DHT22;19640;50.944;5.260;2023-08-01T08:48:31;20.00;99.90
33269;DHT22;19640;50.944;5.260;2023-08-01T08:50:58;19.80;99.90
33269;DHT22;19640;50.944;5.260;2023-08-01T08:53:25;19.90;99.90
33269;DHT22;19640;50.944;5.260;2023-08-01T08:55:51;19.90;99.90
33269;DHT22;19640;50.944;5.260;2023-08-01T08:58:17;20.10;99.90
33269;DHT22;19640;50.944;5.260;2023-08-01T09:00:44;20.10;99.90
33269;DHT22;19640;50.944;5.260;2023-08-01T09:03:10;20.20;99.90
33269;DHT22;19640;50.944;5.260;2023-08-01T09:05:45;20.30;99.90
33269;DHT22;19640;50.944;5.260;2023-08-01T09:08:18;20.00;99.90
33269;DHT22;19640;50.944;5.260;2023-08-01T09:10:45;20.10;99.90
33269;DHT22;19640;50.944;5.260;2023-08-01T09:13:12;20.40;99.90
33269;DHT22;19640;50.944;5.260;2023-08-01T09:15:42;20.80;99.90
33269;DHT22;19640;50.944;5.260;2023-08-01T09:18:09;21.10;99.90
33269;DHT22;19640;50.944;5.260;2023-08-01T09:20:48;20.70;99.90
33269;DHT22;19640;50.944;5.260;2023-08-01T09:23:15;20.80;99.90
33269;DHT22;19640;50.944;5.260;2023-08-01T09:25:42;20.90;99.90
33269;DHT22;19640;50.944;5.260;2023-08-01T09:28:25;21.10;99.90
33269;DHT22;19640;50.944;5.260;2023-08-01T09:30:54;21.20;99.90
33269;DHT22;19640;50.944;5.260;2023-08-01T09:33:23;21.70;99.90
33269;DHT22;19640;50.944;5.260;2023-08-01T09:35:50;21.80;99.90
33269;DHT22;19640;50.944;5.260;2023-08-01T09:38:18;21.80;99.90
33269;DHT22;19640;50.944;5.260;2023-08-01T09:40:45;21.90;99.90
33269;DHT22;19640;50.944;5.260;2023-08-01T09:43:12;22.10;99.90
33269;DHT22;19640;50.944;5.260;2023-08-01T09:45:48;22.00;99.90
33269;DHT22;19640;50.944;5.260;2023-08-01T09:48:25;22.00;99.90
33269;DHT22;19640;50.944;5.260;2023-08-01T09:50:51;22.00;99.90
33269;DHT22;19640;50.944;5.260;2023-08-01T09:53:18;21.70;99.90
33269;DHT22;19640;50.944;5.260;2023-08-01T09:55:46;21.60;99.90
33269;DHT22;19640;50.944;5.260;2023-08-01T09:58:17;21.50;99.90
33269;DHT22;19640;50.944;5.260;2023-08-01T10:00:46;21.30;99.90
33269;DHT22;19640;50.944;5.260;2023-08-01T10:03:12;21.40;99.90
33269;DHT22;19640;50.944;5.260;2023-08-01T10:05:40;21.70;99.90
33269;DHT22;19640;50.944;5.260;2023-08-01T10:08:07;21.60;99.90
33269;DHT22;19640;50.944;5.260;2023-08-01T10:10:33;21.60;99.90
33269;DHT22;19640;50.944;5.260;2023-08-01T10:13:01;21.80;99.90
33269;DHT22;19640;50.944;5.260;2023-08-01T10:15:28;21.80;99.90
33269;DHT22;19640;50.944;5.260;2023-08-01T10:17:54;21.30;99.90
33269;DHT22;19640;50.944;5.260;2023-08-01T10:20:20;21.30;99.90
33269;DHT22;19640;50.944;5.260;2023-08-01T10:22:49;21.20;99.90
33269;DHT22;19640;50.944;5.260;2023-08-01T10:25:16;20.90;99.90
33269;DHT22;19640;50.944;5.260;2023-08-01T10:27:43;21.00;99.90
33269;DHT22;19640;50.944;5.260;2023-08-01T10:30:09;21.10;99.90
33269;DHT22;19640;50.944;5.260;2023-08-01T10:32:37;21.20;99.90
33269;DHT22;19640;50.944;5.260;2023-08-01T10:35:04;21.60;99.90
33269;DHT22;19640;50.944;5.260;2023-08-01T10:37:49;21.70;99.90
33269;DHT22;19640;50.944;5.260;2023-08-01T10:40:15;21.70;99.90
33269;DHT22;19640;50.944;5.260;2023-08-01T10:42:42;21.40;99.90
33269;DHT22;19640;50.944;5.260;2023-08-01T10:45:23;21.20;99.90
33269;DHT22;19640;50.944;5.260;2023-08-01T10:47:52;21.20;99.90
33269;DHT22;19640;50.944;5.260;2023-08-01T10:50:18;21.20;99.90
33269;DHT22;19640;50.944;5.260;2023-08-01T10:52:44;20.90;99.90
33269;DHT22;19640;50.944;5.260;2023-08-01T10:55:11;21.10;99.90
33269;DHT22;19640;50.944;5.260;2023-08-01T10:57:40;21.10;99.90
33269;DHT22;19640;50.944;5.260;2023-08-01T11:00:16;21.20;99.90
33269;DHT22;19640;50.944;5.260;2023-08-01T11:02:49;21.40;99.90
33269;DHT22;19640;50.944;5.260;2023-08-01T11:05:16;21.80;99.90
33269;DHT22;19640;50.944;5.260;2023-08-01T11:07:41;21.80;99.90
33269;DHT22;19640;50.944;5.260;2023-08-01T11:10:12;21.90;99.90
33269;DHT22;19640;50.944;5.260;2023-08-01T11:12:39;21.70;99.90
33269;DHT22;19640;50.944;5.260;2023-08-01T11:15:07;21.80;99.90
33269;DHT22;19640;50.944;5.260;2023-08-01T11:17:35;22.00;99.90
33269;DHT22;19640;50.944;5.260;2023-08-01T11:20:03;22.10;99.90
33269;DHT22;19640;50.944;5.260;2023-08-01T11:22:30;22.30;99.90
33269;DHT22;19640;50.944;5.260;2023-08-01T11:24:56;22.30;99.90
33269;DHT22;19640;50.944;5.260;2023-08-01T11:27:21;22.40;99.90
33269;DHT22;19640;50.944;5.260;2023-08-01T11:29:47;22.30;99.90
33269;DHT22;19640;50.944;5.260;2023-08-01T11:32:13;22.40;99.90
33269;DHT22;19640;50.944;5.260;2023-08-01T11:34:42;22.60;99.90
33269;DHT22;19640;50.944;5.260;2023-08-01T11:37:10;22.70;99.90
33269;DHT22;19640;50.944;5.260;2023-08-01T11:39:37;22.50;99.90
33269;DHT22;19640;50.944;5.260;2023-08-01T11:42:03;22.50;99.90
33269;DHT22;19640;50.944;5.260;2023-08-01T11:44:28;22.50;99.90
33269;DHT22;19640;50.944;5.260;2023-08-01T11:46:55;22.60;99.90
33269;DHT22;19640;50.944;5.260;2023-08-01T11:49:22;22.60;99.90
33269;DHT22;19640;50.944;5.260;2023-08-01T11:51:48;22.80;99.90
33269;DHT22;19640;50.944;5.260;2023-08-01T11:54:14;22.70;99.90
33269;DHT22;19640;50.944;5.260;2023-08-01T11:56:41;22.60;99.90
33269;DHT22;19640;50.944;5.260;2023-08-01T11:59:15;22.70;99.90
33269;DHT22;19640;50.944;5.260;2023-08-01T12:01:42;22.60;99.90
33269;DHT22;19640;50.944;5.260;2023-08-01T12:04:08;22.50;99.90
33269;DHT22;19640;50.944;5.260;2023-08-01T12:06:34;22.50;99.90
33269;DHT22;19640;50.944;5.260;2023-08-01T12:09:19;22.60;99.90
33269;DHT22;19640;50.944;5.260;2023-08-01T12:11:46;22.50;99.90
33269;DHT22;19640;50.944;5.260;2023-08-01T12:14:15;22.60;99.90
33269;DHT22;19640;50.944;5.260;2023-08-01T12:16:43;22.30;99.90
33269;DHT22;19640;50.944;5.260;2023-08-01T12:19:10;22.20;99.90
33269;DHT22;19640;50.944;5.260;2023-08-01T12:21:37;22.30;99.90
33269;DHT22;19640;50.944;5.260;2023-08-01T12:24:03;22.40;99.90
33269;DHT22;19640;50.944;5.260;2023-08-01T12:26:29;22.40;99.90
33269;DHT22;19640;50.944;5.260;2023-08-01T12:28:55;22.50;99.90
33269;DHT22;19640;50.944;5.260;2023-08-01T12:31:22;22.50;99.90
33269;DHT22;19640;50.944;5.260;2023-08-01T12:33:49;22.30;99.90
33269;DHT22;19640;50.944;5.260;2023-08-01T12:36:16;22.00;99.90
33269;DHT22;19640;50.944;5.260;2023-08-01T12:38:42;22.00;99.90
33269;DHT22;19640;50.944;5.260;2023-08-01T12:41:07;22.00;99.90
33269;DHT22;19640;50.944;5.260;2023-08-01T12:43:35;21.80;99.90
33269;DHT22;19640;50.944;5.260;2023-08-01T12:46:01;21.70;99.90
33269;DHT22;19640;50.944;5.260;2023-08-01T12:48:27;21.70;99.90
33269;DHT22;19640;50.944;5.260;2023-08-01T12:50:54;21.80;99.90
33269;DHT22;19640;50.944;5.260;2023-08-01T12:53:22;21.90;99.90
33269;DHT22;19640;50.944;5.260;2023-08-01T12:55:50;22.10;99.90
33269;DHT22;19640;50.944;5.260;2023-08-01T12:58:15;22.30;99.90
33269;DHT22;19640;50.944;5.260;2023-08-01T13:00:43;22.40;99.90
33269;DHT22;19640;50.944;5.260;2023-08-01T13:03:09;22.40;99.90
33269;DHT22;19640;50.944;5.260;2023-08-01T13:05:35;22.50;99.90
33269;DHT22;19640;50.944;5.260;2023-08-01T13:08:02;22.30;99.90
33269;DHT22;19640;50.944;5.260;2023-08-01T13:10:36;22.20;99.90
33269;DHT22;19640;50.944;5.260;2023-08-01T13:13:01;22.00;99.90
33269;DHT22;19640;50.944;5.260;2023-08-01T13:15:30;21.90;99.90
33269;DHT22;19640;50.944;5.260;2023-08-01T13:17:56;21.90;99.90
33269;DHT22;19640;50.944;5.260;2023-08-01T13:20:22;21.80;99.90
33269;DHT22;19640;50.944;5.260;2023-08-01T13:22:50;21.90;99.90
33269;DHT22;19640;50.944;5.260;2023-08-01T13:25:17;21.90;99.90
33269;DHT22;19640;50.944;5.260;2023-08-01T13:27:43;22.10;99.90
33269;DHT22;19640;50.944;5.260;2023-08-01T13:30:10;22.10;99.90
33269;DHT22;19640;50.944;5.260;2023-08-01T13:32:40;22.10;99.90
33269;DHT22;19640;50.944;5.260;2023-08-01T13:35:06;21.90;99.90
33269;DHT22;19640;50.944;5.260;2023-08-01T13:37:32;21.70;99.90
33269;DHT22;19640;50.944;5.260;2023-08-01T13:39:58;21.60;99.90
33269;DHT22;19640;50.944;5.260;2023-08-01T13:42:23;21.60;99.90
33269;DHT22;19640;50.944;5.260;2023-08-01T13:44:49;21.30;99.90
33269;DHT22;19640;50.944;5.260;2023-08-01T13:47:15;21.40;99.90
33269;DHT22;19640;50.944;5.260;2023-08-01T13:49:40;21.50;99.90
33269;DHT22;19640;50.944;5.260;2023-08-01T13:52:06;21.70;99.90
33269;DHT22;19640;50.944;5.260;2023-08-01T13:54:32;21.80;99.90
33269;DHT22;19640;50.944;5.260;2023-08-01T13:57:00;21.50;99.90
33269;DHT22;19640;50.944;5.260;2023-08-01T13:59:26;21.30;99.90
33269;DHT22;19640;50.944;5.260;2023-08-01T14:01:52;21.50;99.90
33269;DHT22;19640;50.944;5.260;2023-08-01T14:04:18;21.50;99.90
33269;DHT22;19640;50.944;5.260;2023-08-01T14:06:44;21.50;99.90
33269;DHT22;19640;50.944;5.260;2023-08-01T14:09:10;21.60;99.90
33269;DHT22;19640;50.944;5.260;2023-08-01T14:11:36;21.80;99.90
33269;DHT22;19640;50.944;5.260;2023-08-01T14:14:02;21.90;99.90
33269;DHT22;19640;50.944;5.260;2023-08-01T14:16:29;22.00;99.90
33269;DHT22;19640;50.944;5.260;2023-08-01T14:18:54;22.30;99.90
33269;DHT22;19640;50.944;5.260;2023-08-01T14:21:20;22.60;99.90
33269;DHT22;19640;50.944;5.260;2023-08-01T14:23:46;22.40;99.90
33269;DHT22;19640;50.944;5.260;2023-08-01T14:26:11;22.30;99.90
33269;DHT22;19640;50.944;5.260;2023-08-01T14:28:37;22.20;99.90
33269;DHT22;19640;50.944;5.260;2023-08-01T14:31:04;21.90;99.90
33269;DHT22;19640;50.944;5.260;2023-08-01T14:33:30;21.90;99.90
33269;DHT22;19640;50.944;5.260;2023-08-01T14:35:57;22.00;99.90
33269;DHT22;19640;50.944;5.260;2023-08-01T14:38:23;22.00;99.90
33269;DHT22;19640;50.944;5.260;2023-08-01T14:40:49;22.00;99.90
33269;DHT22;19640;50.944;5.260;2023-08-01T14:43:14;22.10;99.90
33269;DHT22;19640;50.944;5.260;2023-08-01T14:45:40;22.00;99.90
33269;DHT22;19640;50.944;5.260;2023-08-01T14:48:07;21.90;99.90
33269;DHT22;19640;50.944;5.260;2023-08-01T14:50:33;21.60;99.90
33269;DHT22;19640;50.944;5.260;2023-08-01T14:52:59;21.50;99.90
33269;DHT22;19640;50.944;5.260;2023-08-01T14:55:25;21.40;99.90
33269;DHT22;19640;50.944;5.260;2023-08-01T14:57:51;21.20;99.90
33269;DHT22;19640;50.944;5.260;2023-08-01T15:00:17;21.00;99.90
33269;DHT22;19640;50.944;5.260;2023-08-01T15:02:42;21.00;99.90
33269;DHT22;19640;50.944;5.260;2023-08-01T15:05:08;21.00;99.90
33269;DHT22;19640;50.944;5.260;2023-08-01T15:07:35;20.80;99.90
33269;DHT22;19640;50.944;5.260;2023-08-01T15:10:00;20.70;99.90
33269;DHT22;19640;50.944;5.260;2023-08-01T15:12:26;20.80;99.90
33269;DHT22;19640;50.944;5.260;2023-08-01T15:14:53;20.90;99.90
33269;DHT22;19640;50.944;5.260;2023-08-01T15:17:19;21.00;99.90
33269;DHT22;19640;50.944;5.260;2023-08-01T15:19:45;21.00;99.90
33269;DHT22;19640;50.944;5.260;2023-08-01T15:22:14;20.90;99.90
33269;DHT22;19640;50.944;5.260;2023-08-01T15:24:40;21.00;99.90
33269;DHT22;19640;50.944;5.260;2023-08-01T15:27:06;20.70;99.90